Las Vegas, Nevada
Traffic Map
Current Weather Conditions
Las Vegas, Nevada
Few Clouds
Few Clouds
26°
Feels Like: 26°
Wind Chill: 26° Ceiling: Unl
Heat Index: 26° Visibility: 10mi
Dew Point: Wind: 16mph
Humidity: 24% Direction: 170° (S)
Pressure: 30.01in Gusts: 0mph
Raw Report DataKLAS 251656Z 17014KT 10SM FEW180 FEW250 26/04 A3001 RMK AO2 SLP144 T02610039
Traffic Incident Summary
Active as of:
Severity:
Category:
InformationThere was an issue retrieving the traffic information for this location. Please try a different location or try again shortly.
Advertisements
Track Severe Weather on mobile